Time;durP1;ratioP1;P1;durP2;ratioP2;P2;SDS_P1;SDS_P2;PMS_P1;PMS_P2;Temp;Humidity;BMP_temperature;BMP_pressure;BME280_temperature;BME280_humidity;BME280_pressure;Samples;Min_cycle;Max_cycle;Signal;HPM_P1;HPM_P2
2022/03/16 07:57:55;;;;;;;9.47;8.80;;;15.40;92.20;;;;;;5103353;27;20273;-79
2022/03/16 08:00:22;;;;;;;11.10;9.20;;;15.70;67.60;;;;;;5123460;28;20998;-78
2022/03/16 08:02:48;;;;;;;11.07;10.07;;;16.10;66.00;;;;;;5085379;28;20891;-79
2022/03/16 08:05:16;;;;;;;9.60;8.80;;;15.70;61.80;;;;;;5101728;28;20648;-78
2022/03/16 08:07:42;;;;;;;8.53;7.93;;;15.90;61.40;;;;;;5081698;28;20214;-77
2022/03/16 08:10:08;;;;;;;10.77;9.00;;;16.80;57.50;;;;;;5099619;28;20430;-78
2022/03/16 08:12:34;;;;;;;9.33;8.63;;;16.80;55.60;;;;;;5107567;28;20220;-78
2022/03/16 08:15:00;;;;;;;9.00;8.40;;;17.00;54.70;;;;;;5090295;28;20454;-78
2022/03/16 08:17:26;;;;;;;10.27;9.57;;;17.00;53.60;;;;;;5103769;28;20189;-79
2022/03/16 08:19:52;;;;;;;10.63;8.50;;;16.50;54.20;;;;;;5089681;28;20431;-80
2022/03/16 08:22:29;;;;;;;11.03;10.20;;;17.00;54.10;;;;;;5108477;28;20955;-78
2022/03/16 08:24:55;;;;;;;9.53;8.83;;;15.30;53.80;;;;;;5089565;28;20239;-78
2022/03/16 08:27:22;;;;;;;10.23;9.37;;;15.80;56.90;;;;;;5106316;28;20478;-78
2022/03/16 08:29:48;;;;;;;9.97;9.07;;;16.30;54.50;;;;;;5090513;28;20426;-79
2022/03/16 08:32:14;;;;;;;8.40;7.80;;;16.20;54.90;;;;;;5113711;28;20444;-78
2022/03/16 08:34:39;;;;;;;11.00;9.90;;;17.30;53.00;;;;;;5092069;28;20616;-78
2022/03/16 08:37:05;;;;;;;10.07;9.37;;;18.00;50.80;;;;;;5107957;28;20190;-78
2022/03/16 08:39:30;;;;;;;9.50;8.90;;;17.60;48.50;;;;;;5090582;28;20208;-77
2022/03/16 08:41:56;;;;;;;10.07;9.30;;;17.90;49.20;;;;;;5096851;28;20182;-77
2022/03/16 08:44:22;;;;;;;11.10;10.13;;;17.30;49.20;;;;;;5089826;28;20192;-78
2022/03/16 08:47:10;;;;;;;10.40;9.60;;;16.80;50.10;;;;;;5072925;28;10000708;-75
2022/03/16 08:49:37;;;;;;;10.73;9.77;;;17.50;49.70;;;;;;5088101;28;20388;-76
2022/03/16 08:52:05;;;;;;;9.00;8.40;;;17.40;49.00;;;;;;5096466;28;20459;-77
2022/03/16 08:54:30;;;;;;;10.53;9.70;;;17.50;49.10;;;;;;5091027;28;20444;-77
2022/03/16 08:56:56;;;;;;;10.07;9.03;;;16.60;48.80;;;;;;5090627;28;20552;-77
2022/03/16 08:59:23;;;;;;;9.40;8.70;;;17.60;49.40;;;;;;5088006;28;20203;-78
2022/03/16 09:01:50;;;;;;;9.70;8.80;;;18.40;48.30;;;;;;5110130;28;20200;-78
2022/03/16 09:04:18;;;;;;;9.30;8.70;;;18.80;45.90;;;;;;5104679;28;20395;-77
2022/03/16 09:06:44;;;;;;;9.07;8.53;;;18.40;46.30;;;;;;4750050;28;10000128;-78
2022/03/16 09:09:10;;;;;;;9.47;8.50;;;17.60;47.00;;;;;;5097930;28;20192;-77
2022/03/16 09:11:36;;;;;;;9.07;8.17;;;17.70;47.30;;;;;;5097119;28;20523;-77
2022/03/16 09:14:02;;;;;;;9.60;8.83;;;18.10;46.70;;;;;;5105297;28;20190;-78
2022/03/16 09:16:28;;;;;;;9.27;8.57;;;18.00;46.40;;;;;;5098039;28;20219;-77
2022/03/16 09:18:54;;;;;;;10.03;9.30;;;17.40;46.90;;;;;;5094487;28;20988;-77
2022/03/16 09:21:19;;;;;;;8.97;8.30;;;17.70;48.90;;;;;;5072122;28;20300;-77
2022/03/16 09:23:45;;;;;;;9.47;8.80;;;16.80;48.80;;;;;;5107661;28;20195;-77
2022/03/16 09:26:12;;;;;;;9.33;8.73;;;15.90;48.70;;;;;;5085415;28;20212;-77
2022/03/16 09:28:38;;;;;;;8.50;7.80;;;15.50;51.30;;;;;;5099960;28;20621;-77
2022/03/16 09:31:03;;;;;;;8.00;7.40;;;15.70;51.10;;;;;;5104554;28;20474;-77
2022/03/16 09:33:30;;;;;;;5.50;5.10;;;16.30;51.20;;;;;;5085539;28;20213;-78
2022/03/16 09:35:56;;;;;;;10.20;9.30;;;16.40;50.00;;;;;;5093205;28;20651;-76
2022/03/16 09:38:22;;;;;;;9.68;9.02;;;16.20;50.10;;;;;;5088315;28;20404;-77
2022/03/16 09:41:01;;;;;;;9.57;8.87;;;16.10;50.30;;;;;;5096978;28;20318;-77
2022/03/16 09:43:27;;;;;;;10.37;9.27;;;16.60;50.50;;;;;;5091646;28;20438;-77
2022/03/16 09:46:11;;;;;;;8.63;8.03;;;17.50;49.40;;;;;;5094558;28;20719;-76
2022/03/16 09:48:39;;;;;;;7.93;7.43;;;17.10;49.60;;;;;;5085449;28;20497;-76
2022/03/16 09:51:11;;;;;;;10.50;9.53;;;17.70;48.10;;;;;;5099023;28;20446;-77
2022/03/16 09:53:38;;;;;;;9.40;8.70;;;18.60;46.20;;;;;;5069033;28;20425;-77
2022/03/16 09:56:05;;;;;;;9.90;9.10;;;19.00;45.50;;;;;;5100845;28;20535;-78
2022/03/16 09:58:31;;;;;;;10.50;9.50;;;19.60;46.10;;;;;;5100601;28;20939;-77
2022/03/16 10:00:56;;;;;;;10.97;9.97;;;20.30;45.40;;;;;;5088140;28;20444;-76
2022/03/16 10:03:23;;;;;;;8.03;7.37;;;21.20;41.90;;;;;;5098174;28;20493;-77
2022/03/16 10:05:50;;;;;;;8.57;7.83;;;21.40;42.00;;;;;;5086213;28;20211;-76
2022/03/16 10:08:35;;;;;;;8.83;8.33;;;21.70;40.60;;;;;;4737650;28;10000435;-76
2022/03/16 10:14:08;;;;;;;9.53;8.83;;;20.20;41.00;;;;;;5082206;28;20460;-76
2022/03/16 10:19:23;;;;;;;9.20;8.60;;;20.40;40.60;;;;;;5078487;28;20881;-78
2022/03/16 10:21:59;;;;;;;9.10;8.60;;;18.70;41.70;;;;;;5085967;28;20433;-77
2022/03/16 10:24:33;;;;;;;7.60;7.20;;;17.80;42.30;;;;;;5092374;28;20454;-79
2022/03/16 10:26:59;;;;;;;8.10;7.60;;;17.90;43.60;;;;;;5083498;28;20476;-80
2022/03/16 10:29:27;;;;;;;9.40;8.70;;;18.90;43.50;;;;;;5092045;28;20455;-80
2022/03/16 10:32:05;;;;;;;9.50;8.80;;;18.50;42.60;;;;;;5086099;28;20437;-80
2022/03/16 10:34:32;;;;;;;8.47;7.90;;;19.40;42.30;;;;;;5101419;28;20434;-78
2022/03/16 10:37:05;;;;;;;8.37;7.87;;;18.90;42.30;;;;;;5091103;28;20434;-80
2022/03/16 10:39:33;;;;;;;8.37;7.83;;;19.40;42.40;;;;;;5078826;28;20425;-80
2022/03/16 10:47:56;;;;;;;11.33;10.53;;;20.30;41.00;;;;;;5076224;28;20804;-78
2022/03/16 10:50:22;;;;;;;7.83;7.43;;;21.10;41.10;;;;;;5093959;28;20424;-78
2022/03/16 10:52:50;;;;;;;7.97;7.40;;;20.80;40.40;;;;;;5104604;28;20189;-77
2022/03/16 10:55:19;;;;;;;8.40;7.97;;;21.80;39.80;;;;;;5105323;28;20423;-77
2022/03/16 10:57:48;;;;;;;8.90;8.40;;;22.10;39.10;;;;;;5084807;28;20758;-76
2022/03/16 11:00:16;;;;;;;9.13;8.60;;;20.10;37.80;;;;;;5105350;28;20510;-76
2022/03/16 11:02:44;;;;;;;8.10;7.50;;;18.80;40.70;;;;;;5082376;28;20440;-77
2022/03/16 11:05:11;;;;;;;7.30;6.70;;;20.00;40.90;;;;;;5075614;28;21147;-77
2022/03/16 11:07:38;;;;;;;7.60;7.20;;;21.30;39.80;;;;;;5082167;28;20936;-76
2022/03/16 11:10:06;;;;;;;7.50;7.10;;;21.70;39.20;;;;;;5107525;22;20978;-82
2022/03/16 11:15:19;;;;;;;7.07;6.57;;;21.40;39.60;;;;;;5044513;28;20429;-83
2022/03/16 11:17:45;;;;;;;6.97;6.67;;;22.30;39.40;;;;;;5046038;28;20467;-83
2022/03/16 11:20:13;;;;;;;7.63;7.23;;;23.00;38.30;;;;;;5036968;28;20456;-83
2022/03/16 11:26:03;;;;;;;5.53;5.33;;;22.80;36.40;;;;;;5028648;28;20492;-83
2022/03/16 11:28:53;;;;;;;8.40;7.93;;;22.40;37.10;;;;;;5040016;28;20480;-83
2022/03/16 11:31:34;;;;;;;6.77;6.47;;;22.30;36.60;;;;;;5033937;28;21025;-82
2022/03/16 11:34:08;;;;;;;5.90;5.60;;;22.00;37.00;;;;;;5039994;28;20540;-85
2022/03/16 11:36:43;;;;;;;5.30;5.20;;;23.50;36.70;;;;;;4683735;28;10001134;-83
2022/03/16 11:39:22;;;;;;;6.03;5.83;;;23.20;36.90;;;;;;5026713;28;20422;-83
2022/03/16 11:41:51;;;;;;;5.63;5.53;;;23.40;36.60;;;;;;5027007;28;20445;-84
2022/03/16 11:44:32;;;;;;;5.93;5.63;;;24.20;36.60;;;;;;5050253;28;20525;-83
2022/03/16 11:47:13;;;;;;;6.00;5.77;;;24.70;35.60;;;;;;5031072;28;20992;-81
2022/03/16 11:50:03;;;;;;;6.00;5.83;;;24.00;35.60;;;;;;5042581;28;20446;-83
2022/03/16 11:53:00;;;;;;;6.37;6.10;;;24.50;35.10;;;;;;5039258;28;20441;-83
2022/03/16 11:55:57;;;;;;;5.67;5.40;;;24.20;34.40;;;;;;5041544;28;20485;-82
2022/03/16 11:58:26;;;;;;;5.50;5.30;;;23.60;35.40;;;;;;5020759;28;20914;-79
2022/03/16 12:01:31;;;;;;;5.00;4.90;;;23.00;35.40;;;;;;5047606;28;20499;-83
2022/03/16 12:04:16;;;;;;;5.77;5.57;;;22.60;35.90;;;;;;5032865;28;20477;-83
2022/03/16 12:07:06;;;;;;;6.20;5.90;;;22.10;36.30;;;;;;5018084;28;20570;-83
2022/03/16 12:09:47;;;;;;;7.27;6.87;;;22.10;36.90;;;;;;5032949;28;20465;-82
2022/03/16 12:15:37;;;;;;;6.40;6.10;;;23.20;35.80;;;;;;5030628;28;20441;-83
2022/03/16 12:18:12;;;;;;;5.90;5.63;;;22.70;35.80;;;;;;5019911;28;20788;-86
2022/03/16 12:20:44;;;;;;;5.60;5.40;;;23.60;35.70;;;;;;5047061;28;20449;-83
2022/03/16 12:23:33;;;;;;;5.70;5.50;;;23.30;35.30;;;;;;5041524;28;20496;-82
2022/03/16 12:26:07;;;;;;;6.60;6.30;;;22.60;35.40;;;;;;5052496;28;20507;-85
2022/03/16 12:31:34;;;;;;;5.60;5.20;;;23.80;36.00;;;;;;5063267;28;21099;-85
2022/03/16 12:34:08;;;;;;;4.20;4.10;;;23.60;35.20;;;;;;5019318;28;20561;-88
2022/03/16 12:36:45;;;;;;;4.73;4.57;;;24.20;36.00;;;;;;5024467;28;20423;-87
2022/03/16 12:39:17;;;;;;;5.40;5.20;;;23.10;35.50;;;;;;5039520;28;20422;-83
2022/03/16 12:44:44;;;;;;;4.63;4.33;;;20.40;34.90;;;;;;5038204;28;20429;-89
2022/03/16 12:47:19;;;;;;;5.43;4.93;;;21.20;36.90;;;;;;5026981;28;20939;-89
2022/03/16 12:49:54;;;;;;;4.57;4.47;;;20.50;35.30;;;;;;5048458;28;20505;-82
2022/03/16 12:53:19;;;;;;;4.63;4.53;;;22.70;35.90;;;;;;5044987;28;20421;-83
2022/03/16 12:56:04;;;;;;;4.40;4.30;;;23.20;35.70;;;;;;5096539;23;20495;-87
2022/03/16 12:58:33;;;;;;;4.50;4.30;;;24.00;38.60;;;;;;5089397;28;20945;-87
2022/03/16 13:03:35;;;;;;;5.03;4.90;;;22.60;35.30;;;;;;5128971;23;20877;-87
2022/03/16 13:06:11;;;;;;;5.20;4.90;;;22.10;35.60;;;;;;5068559;28;20476;-84
2022/03/16 13:08:43;;;;;;;4.50;4.40;;;22.10;36.50;;;;;;4800661;23;10001779;-83
2022/03/16 13:14:17;;;;;;;3.90;3.83;;;22.80;35.60;;;;;;4495908;23;20546;-84
2022/03/16 13:16:46;;;;;;;3.40;3.20;;;24.00;36.10;;;;;;5040886;28;20427;-82
2022/03/16 13:19:20;;;;;;;3.57;3.47;;;22.50;35.40;;;;;;5030068;28;20439;-86
2022/03/16 13:22:02;;;;;;;4.80;4.50;;;24.50;37.60;;;;;;5029752;28;20443;-87
2022/03/16 13:24:33;;;;;;;3.43;3.40;;;22.60;35.80;;;;;;5024164;28;20541;-87
2022/03/16 13:27:08;;;;;;;4.17;4.07;;;21.70;36.20;;;;;;5033017;28;20466;-87
2022/03/16 13:29:40;;;;;;;4.07;3.90;;;21.10;37.20;;;;;;5047595;22;20573;-82
2022/03/16 13:32:07;;;;;;;4.13;4.03;;;20.30;36.70;;;;;;5037499;28;20503;-83
2022/03/16 13:34:50;;;;;;;4.63;4.53;;;19.90;37.30;;;;;;5024299;28;20852;-88
2022/03/16 13:37:29;;;;;;;4.30;4.20;;;19.20;37.80;;;;;;5044185;28;20438;-84
2022/03/16 13:39:59;;;;;;;4.27;4.07;;;21.30;39.20;;;;;;5035083;28;20423;-86
2022/03/16 13:42:31;;;;;;;4.75;4.50;;;19.40;39.40;;;;;;4670545;28;10001039;-83
2022/03/16 13:45:32;;;;;;;3.57;3.57;;;20.10;38.90;;;;;;5051294;28;20418;-80
2022/03/16 13:48:22;;;;;;;4.10;3.90;;;19.30;38.90;;;;;;5008234;28;20479;-86
2022/03/16 13:50:57;;;;;;;4.50;4.30;;;19.70;38.50;;;;;;5029147;28;20435;-80
2022/03/16 13:53:28;;;;;;;4.13;4.03;;;20.20;39.30;;;;;;4673643;28;9999781;-86
2022/03/16 13:55:56;;;;;;;4.67;4.57;;;22.00;41.10;;;;;;5050938;28;20187;-82
2022/03/16 13:58:29;;;;;;;5.27;4.93;;;19.00;39.70;;;;;;5048718;28;20442;-86
2022/03/16 14:01:03;;;;;;;3.87;3.77;;;18.40;38.70;;;;;;5049183;28;20419;-83
2022/03/16 14:06:11;;;;;;;4.87;4.77;;;18.20;39.40;;;;;;5265987;23;20488;-85
2022/03/16 14:08:42;;;;;;;4.60;4.40;;;20.30;41.80;;;;;;5089329;28;20431;-87
2022/03/16 14:11:31;;;;;;;5.67;5.33;;;17.10;41.60;;;;;;5088965;28;20420;-83
2022/03/16 14:14:12;;;;;;;4.93;4.73;;;17.30;40.90;;;;;;5089349;28;20448;-82
2022/03/16 14:17:17;;;;;;;4.27;4.17;;;16.70;41.00;;;;;;5213546;23;20499;-91
2022/03/16 14:19:53;;;;;;;4.87;4.70;;;17.80;40.80;;;;;;5302645;23;20483;-86
2022/03/16 14:22:22;;;;;;;4.83;4.63;;;17.70;42.40;;;;;;5087208;28;20413;-86
2022/03/16 14:24:49;;;;;;;6.33;6.03;;;17.80;41.40;;;;;;5137468;22;20515;-88
2022/03/16 14:27:22;;;;;;;5.20;5.00;;;18.90;42.70;;;;;;5030323;28;20561;-88
2022/03/16 14:29:55;;;;;;;5.60;5.30;;;17.40;42.00;;;;;;5033577;28;20438;-85
2022/03/16 14:32:28;;;;;;;4.77;4.57;;;18.60;42.70;;;;;;5041376;28;20563;-82
2022/03/16 14:34:56;;;;;;;6.43;5.87;;;17.50;42.10;;;;;;5033943;28;20447;-87
2022/03/16 14:37:31;;;;;;;4.70;4.60;;;17.40;43.50;;;;;;5141852;23;20497;-87
2022/03/16 14:45:27;;;;;;;5.77;5.20;;;16.90;42.30;;;;;;5160819;22;20461;-87
2022/03/16 14:51:07;;;;;;;5.50;5.30;;;17.20;43.00;;;;;;5051258;28;20438;-84
2022/03/16 14:53:39;;;;;;;5.70;5.47;;;18.70;44.50;;;;;;5030712;28;20510;-84
2022/03/16 14:56:07;;;;;;;5.67;5.37;;;17.10;43.50;;;;;;5035955;28;20414;-86
2022/03/16 14:58:39;;;;;;;5.47;5.23;;;16.60;43.80;;;;;;5052541;28;20446;-87
2022/03/16 15:01:14;;;;;;;6.40;6.00;;;17.10;44.60;;;;;;5071112;28;20445;-84
2022/03/16 15:06:25;;;;;;;6.70;6.40;;;16.70;43.80;;;;;;5137462;22;20462;-87
2022/03/16 15:08:54;;;;;;;6.73;6.40;;;16.60;45.00;;;;;;5032160;28;20520;-85
2022/03/16 15:11:20;;;;;;;5.67;5.37;;;15.50;44.70;;;;;;5037980;28;20434;-84
2022/03/16 15:18:57;;;;;;;5.60;5.30;;;16.40;45.10;;;;;;5260874;22;20562;-83
2022/03/16 15:21:33;;;;;;;5.87;5.47;;;16.40;45.70;;;;;;5051402;28;20446;-88
2022/03/16 15:24:00;;;;;;;5.87;5.50;;;16.40;45.40;;;;;;5065696;28;20199;-87
2022/03/16 15:26:26;;;;;;;6.20;5.90;;;17.70;47.70;;;;;;5047949;28;20575;-82
2022/03/16 15:28:55;;;;;;;5.73;5.17;;;16.60;45.60;;;;;;5044210;28;20485;-87
2022/03/16 15:31:56;;;;;;;7.87;6.53;;;16.50;45.40;;;;;;5040808;28;20436;-88
2022/03/16 15:35:03;;;;;;;6.83;6.37;;;15.60;44.50;;;;;;5066436;28;20441;-89
2022/03/16 15:37:34;;;;;;;7.27;6.77;;;15.90;46.40;;;;;;5069159;28;20785;-87
2022/03/16 15:42:43;;;;;;;7.07;6.50;;;16.00;46.60;;;;;;5067318;22;20523;-89
2022/03/16 15:45:11;;;;;;;6.97;6.53;;;16.00;46.80;;;;;;5037086;28;20447;-89
2022/03/16 15:48:10;;;;;;;7.07;6.67;;;15.90;47.60;;;;;;5056060;28;20623;-91
2022/03/16 15:50:39;;;;;;;7.37;6.97;;;15.50;48.40;;;;;;5019290;28;20440;-92
2022/03/16 15:53:05;;;;;;;6.67;6.30;;;15.50;51.00;;;;;;5048361;28;20418;-90
2022/03/16 15:56:09;;;;;;;7.53;6.97;;;17.80;53.10;;;;;;5050454;28;20434;-92
2022/03/16 15:58:41;;;;;;;8.13;7.63;;;15.20;51.80;;;;;;5056356;28;21009;-91
2022/03/16 16:01:09;;;;;;;8.27;7.67;;;16.70;53.80;;;;;;5041571;28;20421;-90
2022/03/16 16:03:39;;;;;;;8.37;7.67;;;15.50;55.70;;;;;;5037379;28;20446;-92
2022/03/16 16:06:43;;;;;;;;;;;;;;;;;;;;;
2022/03/16 16:09:36;;;;;;;9.47;8.83;;;15.10;56.10;;;;;;5054197;28;20525;-91
2022/03/16 16:15:10;;;;;;;9.60;8.00;;;15.30;59.00;;;;;;5143886;22;21085;-90
2022/03/16 16:17:47;;;;;;;8.57;8.03;;;15.20;61.30;;;;;;5012480;28;20534;-90
2022/03/16 16:20:22;;;;;;;10.23;9.33;;;15.40;64.00;;;;;;5056402;28;20489;-92
2022/03/16 16:22:57;;;;;;;8.40;7.90;;;14.00;61.90;;;;;;5026290;28;20417;-91
2022/03/16 16:25:30;;;;;;;9.40;8.80;;;15.00;67.30;;;;;;5059665;28;20409;-91
2022/03/16 16:27:57;;;;;;;8.67;8.07;;;17.10;73.10;;;;;;5036315;28;20485;-90
2022/03/16 16:30:29;;;;;;;7.80;7.30;;;13.10;66.00;;;;;;5057964;28;20536;-90
2022/03/16 16:33:00;;;;;;;9.37;8.57;;;14.70;68.20;;;;;;5055996;28;20445;-89
2022/03/16 16:35:29;;;;;;;9.03;8.53;;;15.50;68.50;;;;;;5040357;28;20444;-90
2022/03/16 16:37:58;;;;;;;8.90;8.30;;;16.80;73.70;;;;;;5018188;28;20450;-91
2022/03/16 16:40:38;;;;;;;9.30;8.53;;;14.90;70.60;;;;;;5040282;28;20453;-93
2022/03/16 16:43:15;;;;;;;8.63;8.03;;;14.80;71.40;;;;;;5035209;28;20457;-90
2022/03/16 16:45:47;;;;;;;9.43;8.83;;;14.90;72.00;;;;;;5045098;28;20770;-90
2022/03/16 16:48:24;;;;;;;9.07;8.37;;;15.50;74.00;;;;;;5050899;28;20422;-90
2022/03/16 16:51:06;;;;;;;8.90;8.20;;;14.50;75.50;;;;;;5021822;28;20410;-89
2022/03/16 16:53:34;;;;;;;8.10;7.60;;;16.60;77.30;;;;;;5018642;28;20487;-90
2022/03/16 16:56:02;;;;;;;10.60;9.70;;;15.10;78.90;;;;;;5014097;28;20800;-89
2022/03/16 16:58:31;;;;;;;8.27;7.77;;;14.50;77.10;;;;;;5027309;28;20438;-90
2022/03/16 17:01:07;;;;;;;9.47;8.67;;;15.80;79.70;;;;;;5032418;28;20467;-90
2022/03/16 17:03:46;;;;;;;8.63;8.03;;;14.00;77.90;;;;;;5042626;28;20430;-91
2022/03/16 17:06:16;;;;;;;10.80;9.80;;;14.70;80.60;;;;;;5021856;28;20882;-90
2022/03/16 17:09:22;;;;;;;9.23;8.63;;;15.70;81.60;;;;;;5023233;28;20899;-93
2022/03/16 17:12:10;;;;;;;10.23;9.27;;;14.30;80.80;;;;;;5185148;23;21014;-86
2022/03/16 17:14:36;;;;;;;11.00;10.07;;;15.20;84.60;;;;;;5040122;28;20441;-84
2022/03/16 17:17:03;;;;;;;9.90;9.20;;;14.10;87.00;;;;;;5012297;28;20435;-82
2022/03/16 17:19:50;;;;;;;10.57;9.73;;;14.10;86.20;;;;;;5034148;28;20196;-87
2022/03/16 17:22:16;;;;;;;11.60;10.40;;;14.30;85.30;;;;;;5034456;28;20438;-84
2022/03/16 17:24:42;;;;;;;11.70;10.00;;;16.20;90.20;;;;;;5034882;28;20422;-84
2022/03/16 17:27:12;;;;;;;11.80;10.90;;;14.10;89.50;;;;;;5054337;28;20477;-87
2022/03/16 17:32:20;;;;;;;12.50;11.50;;;13.90;86.90;;;;;;5289990;23;20496;-86
2022/03/16 17:34:49;;;;;;;12.30;11.10;;;13.70;88.50;;;;;;5073660;28;20444;-83
2022/03/16 17:37:26;;;;;;;10.60;9.67;;;14.00;90.30;;;;;;5243711;23;20479;-86
2022/03/16 17:39:52;;;;;;;11.93;10.93;;;13.70;91.00;;;;;;5469972;22;20556;-81
2022/03/16 17:48:17;;;;;;;10.67;9.73;;;14.00;90.50;;;;;;4742699;23;10001507;-84
2022/03/16 17:53:40;;;;;;;10.83;9.93;;;13.80;90.80;;;;;;5195641;22;20488;-85
2022/03/16 18:01:19;;;;;;;11.13;10.23;;;13.70;91.20;;;;;;3162358;23;20491;-83
2022/03/16 18:03:48;;;;;;;15.50;10.53;;;13.80;93.80;;;;;;5089846;28;20432;-84
2022/03/16 18:06:19;;;;;;;11.70;10.37;;;13.60;92.80;;;;;;5224634;23;20500;-88
2022/03/16 18:08:48;;;;;;;12.60;11.50;;;14.20;93.00;;;;;;5232440;23;20579;-87
2022/03/16 18:14:07;;;;;;;11.73;10.70;;;13.90;93.50;;;;;;5199549;22;20518;-82
2022/03/16 18:19:08;;;;;;;12.30;11.30;;;13.60;92.60;;;;;;5525156;22;20472;-84
2022/03/16 18:22:23;;;;;;;13.17;11.90;;;14.70;94.40;;;;;;5057250;28;20425;-82
2022/03/16 18:32:33;;;;;;;12.60;11.30;;;13.40;94.40;;;;;;5493063;22;21446;-82
2022/03/16 18:38:01;;;;;;;13.47;12.20;;;13.40;95.40;;;;;;5087574;23;20484;-87
2022/03/16 18:49:03;;;;;;;14.70;13.30;;;14.70;97.80;;;;;;5286808;23;20595;-81
2022/03/16 19:03:16;;;;;;;14.87;13.50;;;13.10;97.30;;;;;;5797418;23;20631;-84
2022/03/16 19:08:27;;;;;;;13.73;12.50;;;13.10;97.40;;;;;;3999720;23;20872;-86
2022/03/16 19:29:50;;;;;;;14.33;12.93;;;13.10;98.30;;;;;;4999824;28;20492;-87
2022/03/16 19:32:37;;;;;;;15.13;13.20;;;12.60;98.60;;;;;;4989767;28;20429;-81
2022/03/16 19:35:07;;;;;;;17.47;15.00;;;12.60;99.10;;;;;;4978805;28;20431;-83
2022/03/16 19:37:36;;;;;;;14.47;13.20;;;13.00;98.30;;;;;;4996134;28;20434;-88
2022/03/16 20:10:10;;;;;;;15.53;14.03;;;13.00;98.00;;;;;;1086991;23;21536;-82
2022/03/16 20:12:54;;;;;;;;;;;;;;;;;;;;;
2022/03/16 20:15:21;;;;;;;15.87;14.27;;;13.00;99.80;;;;;;5031265;28;20431;-83
2022/03/16 20:17:47;;;;;;;17.17;15.10;;;12.90;99.20;;;;;;5031703;28;20811;-84
2022/03/16 20:20:12;;;;;;;17.00;15.40;;;13.00;98.50;;;;;;5013171;28;20430;-83
2022/03/16 20:22:39;;;;;;;17.70;16.00;;;12.60;97.80;;;;;;5033254;28;20274;-84
2022/03/16 20:25:08;;;;;;;16.03;14.53;;;12.90;98.30;;;;;;5035389;28;20791;-86
2022/03/16 20:27:34;;;;;;;16.33;14.63;;;12.90;98.50;;;;;;5019835;28;20780;-82
2022/03/16 20:30:04;;;;;;;15.27;13.90;;;13.10;99.60;;;;;;5006186;28;20780;-83
2022/03/16 20:32:31;;;;;;;17.73;15.93;;;13.20;98.70;;;;;;5012908;28;20188;-84
2022/03/16 20:35:00;;;;;;;15.03;13.63;;;13.10;99.20;;;;;;5018467;28;20991;-83
2022/03/16 20:37:26;;;;;;;16.60;14.60;;;13.60;98.90;;;;;;5015571;28;20485;-82
2022/03/16 20:39:54;;;;;;;18.13;16.30;;;13.10;98.50;;;;;;5035484;28;20438;-84
2022/03/16 20:42:38;;;;;;;17.03;15.33;;;13.10;98.10;;;;;;5018144;28;20852;-83
2022/03/16 20:45:18;;;;;;;15.33;13.97;;;12.90;98.30;;;;;;5026839;28;20713;-83
2022/03/16 20:48:10;;;;;;;16.30;14.80;;;13.30;98.20;;;;;;5012933;28;20713;-84
2022/03/16 20:50:40;;;;;;;17.53;15.87;;;13.20;98.70;;;;;;5047615;28;20432;-84
2022/03/16 20:53:12;;;;;;;18.03;15.97;;;13.30;97.90;;;;;;5037914;28;20734;-83
2022/03/16 20:55:42;;;;;;;17.43;15.73;;;14.10;99.40;;;;;;5052484;28;20805;-85
2022/03/16 21:00:39;;;;;;;17.93;16.23;;;13.00;98.70;;;;;;5046304;28;20511;-83
2022/03/16 21:01:05;;;;;;;16.90;15.30;;;15.50;99.90;;;;;;5049094;28;20991;-81
2022/03/16 21:03:31;;;;;;;19.57;17.17;;;13.00;98.00;;;;;;5041009;28;20441;-83
2022/03/16 21:06:01;;;;;;;18.37;16.50;;;14.20;99.30;;;;;;5028408;28;20954;-83
2022/03/16 21:08:30;;;;;;;17.83;16.00;;;13.00;98.10;;;;;;5055184;28;20456;-83
2022/03/16 21:11:01;;;;;;;17.30;15.53;;;12.80;98.30;;;;;;5052508;28;20460;-84
2022/03/16 21:13:27;;;;;;;21.80;16.57;;;13.00;98.40;;;;;;5044302;28;20588;-83
2022/03/16 21:16:00;;;;;;;18.20;16.10;;;13.00;98.60;;;;;;5029649;28;20447;-83
2022/03/16 21:18:34;;;;;;;19.47;17.67;;;13.30;98.50;;;;;;5036688;28;20568;-83
2022/03/16 21:21:00;;;;;;;18.77;16.97;;;13.00;98.90;;;;;;5035508;28;20509;-83
2022/03/16 21:23:27;;;;;;;21.50;19.30;;;13.20;98.90;;;;;;5051883;28;20614;-83
2022/03/16 21:25:53;;;;;;;19.00;17.07;;;14.00;99.20;;;;;;5032461;28;20942;-83
2022/03/16 21:28:19;;;;;;;19.17;17.27;;;13.00;98.60;;;;;;5035397;28;20449;-84
2022/03/16 21:30:46;;;;;;;19.07;17.27;;;12.90;97.90;;;;;;5030333;28;20494;-83
2022/03/16 21:33:13;;;;;;;19.20;17.40;;;13.00;98.10;;;;;;5052124;28;20198;-84
2022/03/16 21:35:40;;;;;;;20.63;18.63;;;13.00;98.00;;;;;;5049973;28;20921;-84
2022/03/16 21:38:06;;;;;;;20.07;18.07;;;13.00;98.00;;;;;;5052779;28;20833;-83
2022/03/16 21:43:21;;;;;;;20.03;17.90;;;13.70;98.70;;;;;;5056843;28;20461;-82
2022/03/16 21:45:48;;;;;;;20.33;18.47;;;13.10;97.90;;;;;;5033502;28;20444;-82
2022/03/16 21:48:13;;;;;;;19.30;17.40;;;13.00;97.70;;;;;;5057647;28;20465;-84
2022/03/16 21:50:50;;;;;;;19.97;18.07;;;13.00;98.20;;;;;;5048080;28;20444;-83
2022/03/16 21:53:18;;;;;;;19.40;17.60;;;13.50;98.10;;;;;;5043103;28;20436;-82
2022/03/16 21:55:44;;;;;;;19.30;17.30;;;13.00;97.70;;;;;;5050509;28;20433;-85
2022/03/16 21:58:12;;;;;;;19.73;17.73;;;13.00;97.90;;;;;;5053998;28;20444;-82
2022/03/16 22:00:47;;;;;;;21.03;19.00;;;13.00;97.70;;;;;;5050847;28;20446;-83
2022/03/16 22:03:14;;;;;;;19.67;17.67;;;13.00;98.00;;;;;;5050495;28;20879;-83
2022/03/16 22:05:41;;;;;;;20.30;18.40;;;13.10;97.90;;;;;;5053738;28;20466;-85
2022/03/16 22:08:11;;;;;;;21.10;18.83;;;13.00;97.20;;;;;;5030308;28;21080;-84
2022/03/16 22:10:37;;;;;;;21.80;18.70;;;12.90;97.70;;;;;;5057283;28;20452;-84
2022/03/16 22:13:03;;;;;;;20.90;18.73;;;13.10;97.60;;;;;;5050223;28;20429;-83
2022/03/16 22:15:32;;;;;;;21.53;19.07;;;13.10;97.60;;;;;;5037650;28;20740;-83
2022/03/16 22:18:01;;;;;;;21.77;19.47;;;13.00;97.60;;;;;;5054082;28;20321;-82
2022/03/16 22:21:20;;;;;;;21.10;18.90;;;13.00;97.40;;;;;;5033992;28;20454;-84
2022/03/16 22:23:13;;;;;;;19.83;17.33;;;13.00;97.30;;;;;;5052187;28;20483;-83
2022/03/16 22:25:39;;;;;;;19.20;17.40;;;13.00;97.50;;;;;;5033297;28;20437;-85
2022/03/16 22:28:05;;;;;;;23.70;18.03;;;13.00;97.50;;;;;;5034043;28;20560;-84
2022/03/16 22:30:40;;;;;;;21.63;19.43;;;13.20;97.70;;;;;;5037086;28;20274;-83
2022/03/16 22:33:06;;;;;;;21.57;19.37;;;13.00;97.40;;;;;;5034774;28;20429;-82
2022/03/16 22:35:32;;;;;;;19.37;17.43;;;13.00;97.60;;;;;;5060395;28;20825;-83
2022/03/16 22:37:58;;;;;;;21.03;18.77;;;13.00;97.10;;;;;;5061059;28;20522;-83
2022/03/16 22:40:25;;;;;;;19.87;17.87;;;13.10;97.30;;;;;;5050689;28;20425;-83
2022/03/16 22:42:52;;;;;;;19.30;17.40;;;13.10;97.00;;;;;;5036650;28;20433;-85
2022/03/16 22:45:19;;;;;;;22.40;19.00;;;13.00;97.10;;;;;;5048062;28;20458;-83
2022/03/16 22:47:45;;;;;;;21.77;19.60;;;13.10;97.60;;;;;;5047979;28;20917;-84
2022/03/16 22:50:13;;;;;;;20.47;18.30;;;13.00;97.10;;;;;;5048580;28;20893;-84
2022/03/16 22:52:39;;;;;;;21.13;18.97;;;13.00;97.30;;;;;;5033877;28;20819;-83
2022/03/16 22:55:07;;;;;;;21.13;19.13;;;13.00;97.20;;;;;;5035463;28;20457;-84
2022/03/16 22:57:32;;;;;;;18.60;16.60;;;13.00;97.20;;;;;;5047134;28;20411;-82
2022/03/16 23:00:07;;;;;;;20.27;18.20;;;13.00;97.00;;;;;;5029590;28;20629;-82
2022/03/16 23:02:33;;;;;;;21.67;18.97;;;13.10;97.10;;;;;;5047234;28;20786;-82
2022/03/16 23:04:59;;;;;;;22.37;20.17;;;13.00;96.90;;;;;;5029140;28;20449;-83
2022/03/16 23:07:25;;;;;;;20.30;18.23;;;13.00;97.00;;;;;;5028859;28;20550;-82
2022/03/16 23:10:05;;;;;;;23.03;19.30;;;13.10;97.10;;;;;;5097263;23;20234;-83
2022/03/16 23:12:31;;;;;;;22.10;19.80;;;14.00;98.50;;;;;;5065543;28;20651;-84
2022/03/16 23:15:06;;;;;;;21.60;19.27;;;14.10;99.00;;;;;;5065841;28;20511;-83
2022/03/16 23:17:35;;;;;;;19.33;16.93;;;12.80;97.60;;;;;;5065999;28;20713;-84
2022/03/16 23:20:10;;;;;;;18.20;16.50;;;13.20;98.20;;;;;;5067584;28;20769;-84
2022/03/16 23:22:47;;;;;;;20.43;18.37;;;13.50;97.20;;;;;;5066925;28;20446;-84
2022/03/16 23:25:33;;;;;;;22.10;19.90;;;13.10;97.50;;;;;;5063834;28;20602;-85
2022/03/16 23:28:10;;;;;;;23.63;20.77;;;13.50;97.60;;;;;;5068897;28;20573;-84
2022/03/16 23:30:39;;;;;;;21.80;19.37;;;14.60;99.60;;;;;;5069411;28;20786;-84
2022/03/16 23:33:15;;;;;;;22.43;20.10;;;13.10;98.00;;;;;;5070768;28;20432;-83
2022/03/16 23:35:42;;;;;;;19.30;17.30;;;13.00;98.60;;;;;;5064964;28;20419;-85
2022/03/16 23:38:11;;;;;;;20.83;18.73;;;13.40;98.10;;;;;;5064654;28;20551;-84
2022/03/16 23:40:37;;;;;;;23.53;21.20;;;13.40;98.90;;;;;;5063634;28;20433;-85
2022/03/16 23:43:04;;;;;;;24.67;18.83;;;13.20;97.80;;;;;;5065677;28;20470;-84
2022/03/16 23:45:33;;;;;;;21.00;19.00;;;13.10;97.80;;;;;;5063824;28;20424;-85
2022/03/16 23:48:09;;;;;;;20.53;18.40;;;13.10;98.50;;;;;;5066998;28;20560;-85